Bemidji, MN (56601)

9:49 PM CDT on August 30, 2016 (GMT -0500)
Jordan Seaplane Base | | Change Station

Elev 1368 ft 47.60 °N, 94.85 °W | Updated 6 minutes ago

Clear
Clear
57.4 °F
Feels Like 57.4 °F
N
0.0
Wind Variable Wind from NNE

Today
High -- | Low -- °F
--% Chance of Precip.
Yesterday
High -- | Low -- °F
Precip. -- in
Pressure 30.21 in
Visibility 10.0 miles
Clouds Clear
Dew Point 55 °F
Humidity 91%
Rainfall 0.00 in
Snow Depth Not available.
6:36 AM 8:02 PM
Waning Crescent, 2% visible
METAR KBJI 310233Z AUTO 00000KT 10SM CLR 13/12 A3021 RMK AO2 T01320116
Pressure 30.21 in
Visibility 10.0 miles
Clouds Clear
Dew Point 55 °F
Humidity 91%
Rainfall 0.00 in
Snow Depth Not available.
6:36 AM 8:02 PM
Waning Crescent, 2% visible
METAR KBJI 310233Z AUTO 00000KT 10SM CLR 13/12 A3021 RMK AO2 T01320116

10-Day Weather Forecast

Almanac

Astronomy

Aug. 30, 2016 Rise Set
Actual Time
Civil Twilight
Nautical Twilight
Astronomical Twilight
Moon
Length of Visible Light
Length of Day
Tomorrow will be .
, % of the Moon is Illuminated

Today's Extremes

State Highs State Lows

Community

WunderPhotos

Upload Photos

1,936,002 photos uploaded!

WunderBlog® & News

Nearby

Air Quality

  Air Quality AQ Index Pollutant
Not available.

Snow Depth

Station Depth Elevation

Earthquake Activity

City Distance Mag. Time & Date
Minimum magnitude displayed is 2.5.

Coastal Water Temperatures

Place Temperature

Stations

Nearby Weather Stations

Station Location Temp. Windchill Dew Point Humidity Wind Precip. Elev Updated Type
                   

Watches & Warnings

There are currently no watches in effect.